sensor_id;sensor_type;location;lat;lon;timestamp;temperature;humidity
21799;DHT22;24973;47.178;15.316;2022-08-03T00:01:37;17.60;99.90
21799;DHT22;24973;47.178;15.316;2022-08-03T00:04:28;17.50;99.90
21799;DHT22;24973;47.178;15.316;2022-08-03T00:07:16;17.40;99.90
21799;DHT22;24973;47.178;15.316;2022-08-03T00:10:06;17.30;99.90
21799;DHT22;24973;47.178;15.316;2022-08-03T00:12:56;17.30;99.90
21799;DHT22;24973;47.178;15.316;2022-08-03T00:15:45;17.30;99.90
21799;DHT22;24973;47.178;15.316;2022-08-03T00:18:34;17.30;99.90
21799;DHT22;24973;47.178;15.316;2022-08-03T00:21:23;17.30;99.90
21799;DHT22;24973;47.178;15.316;2022-08-03T00:24:11;17.30;99.90
21799;DHT22;24973;47.178;15.316;2022-08-03T00:27:00;17.40;99.90
21799;DHT22;24973;47.178;15.316;2022-08-03T00:29:50;17.40;99.90
21799;DHT22;24973;47.178;15.316;2022-08-03T00:32:39;17.50;99.90
21799;DHT22;24973;47.178;15.316;2022-08-03T00:35:28;17.50;99.90
21799;DHT22;24973;47.178;15.316;2022-08-03T00:38:17;17.50;99.90
21799;DHT22;24973;47.178;15.316;2022-08-03T00:41:06;17.50;99.90
21799;DHT22;24973;47.178;15.316;2022-08-03T00:43:55;17.50;99.90
21799;DHT22;24973;47.178;15.316;2022-08-03T00:46:45;17.40;99.90
21799;DHT22;24973;47.178;15.316;2022-08-03T00:49:33;17.30;99.90
21799;DHT22;24973;47.178;15.316;2022-08-03T00:52:22;17.30;99.90
21799;DHT22;24973;47.178;15.316;2022-08-03T00:55:11;17.30;99.90
21799;DHT22;24973;47.178;15.316;2022-08-03T00:58:01;17.20;99.90
21799;DHT22;24973;47.178;15.316;2022-08-03T01:00:52;17.10;99.90
21799;DHT22;24973;47.178;15.316;2022-08-03T01:03:42;17.00;99.90
21799;DHT22;24973;47.178;15.316;2022-08-03T01:06:38;16.90;99.90
21799;DHT22;24973;47.178;15.316;2022-08-03T01:09:37;16.90;99.90
21799;DHT22;24973;47.178;15.316;2022-08-03T01:12:34;16.90;99.90
21799;DHT22;24973;47.178;15.316;2022-08-03T01:15:32;16.90;99.90
21799;DHT22;24973;47.178;15.316;2022-08-03T01:18:32;16.90;99.90
21799;DHT22;24973;47.178;15.316;2022-08-03T01:21:28;16.90;99.90
21799;DHT22;24973;47.178;15.316;2022-08-03T01:24:30;16.90;99.90
21799;DHT22;24973;47.178;15.316;2022-08-03T01:27:28;17.00;99.90
21799;DHT22;24973;47.178;15.316;2022-08-03T01:30:24;17.10;99.90
21799;DHT22;24973;47.178;15.316;2022-08-03T01:33:19;17.10;99.90
21799;DHT22;24973;47.178;15.316;2022-08-03T01:36:12;17.10;99.90
21799;DHT22;24973;47.178;15.316;2022-08-03T01:39:04;17.00;99.90
21799;DHT22;24973;47.178;15.316;2022-08-03T01:41:58;16.90;99.90
21799;DHT22;24973;47.178;15.316;2022-08-03T01:44:52;16.80;99.90
21799;DHT22;24973;47.178;15.316;2022-08-03T01:47:44;16.80;99.90
21799;DHT22;24973;47.178;15.316;2022-08-03T01:50:34;16.80;99.90
21799;DHT22;24973;47.178;15.316;2022-08-03T01:53:23;16.80;99.90
21799;DHT22;24973;47.178;15.316;2022-08-03T01:56:13;16.70;99.90
21799;DHT22;24973;47.178;15.316;2022-08-03T01:59:03;16.70;99.90
21799;DHT22;24973;47.178;15.316;2022-08-03T02:01:55;16.60;99.90
21799;DHT22;24973;47.178;15.316;2022-08-03T02:04:47;16.50;99.90
21799;DHT22;24973;47.178;15.316;2022-08-03T02:07:37;16.40;99.90
21799;DHT22;24973;47.178;15.316;2022-08-03T02:10:28;16.40;99.90
21799;DHT22;24973;47.178;15.316;2022-08-03T02:13:18;16.40;99.90
21799;DHT22;24973;47.178;15.316;2022-08-03T02:16:08;16.40;99.90
21799;DHT22;24973;47.178;15.316;2022-08-03T02:19:00;16.30;99.90
21799;DHT22;24973;47.178;15.316;2022-08-03T02:21:52;16.20;99.90
21799;DHT22;24973;47.178;15.316;2022-08-03T02:24:42;16.20;99.90
21799;DHT22;24973;47.178;15.316;2022-08-03T02:27:33;16.20;99.90
21799;DHT22;24973;47.178;15.316;2022-08-03T02:30:30;16.20;99.90
21799;DHT22;24973;47.178;15.316;2022-08-03T02:33:26;16.20;99.90
21799;DHT22;24973;47.178;15.316;2022-08-03T02:36:19;16.10;99.90
21799;DHT22;24973;47.178;15.316;2022-08-03T02:39:16;16.00;99.90
21799;DHT22;24973;47.178;15.316;2022-08-03T02:42:08;15.90;99.90
21799;DHT22;24973;47.178;15.316;2022-08-03T02:45:02;15.90;99.90
21799;DHT22;24973;47.178;15.316;2022-08-03T02:47:55;16.00;99.90
21799;DHT22;24973;47.178;15.316;2022-08-03T02:50:47;16.10;99.90
21799;DHT22;24973;47.178;15.316;2022-08-03T02:53:38;16.20;99.90
21799;DHT22;24973;47.178;15.316;2022-08-03T02:56:30;16.30;99.90
21799;DHT22;24973;47.178;15.316;2022-08-03T02:59:19;16.30;99.90
21799;DHT22;24973;47.178;15.316;2022-08-03T03:02:08;16.10;99.90
21799;DHT22;24973;47.178;15.316;2022-08-03T03:04:59;16.00;99.90
21799;DHT22;24973;47.178;15.316;2022-08-03T03:07:49;15.90;99.90
21799;DHT22;24973;47.178;15.316;2022-08-03T03:10:39;15.80;99.90
21799;DHT22;24973;47.178;15.316;2022-08-03T03:13:30;15.70;99.90
21799;DHT22;24973;47.178;15.316;2022-08-03T03:16:20;15.60;99.90
21799;DHT22;24973;47.178;15.316;2022-08-03T03:19:10;15.60;99.90
21799;DHT22;24973;47.178;15.316;2022-08-03T03:22:01;15.70;99.90
21799;DHT22;24973;47.178;15.316;2022-08-03T03:24:51;15.70;99.90
21799;DHT22;24973;47.178;15.316;2022-08-03T03:27:41;15.60;99.90
21799;DHT22;24973;47.178;15.316;2022-08-03T03:30:32;15.60;99.90
21799;DHT22;24973;47.178;15.316;2022-08-03T03:33:21;15.50;99.90
21799;DHT22;24973;47.178;15.316;2022-08-03T03:36:10;15.50;99.90
21799;DHT22;24973;47.178;15.316;2022-08-03T03:38:59;15.40;99.90
21799;DHT22;24973;47.178;15.316;2022-08-03T03:41:48;15.40;99.90
21799;DHT22;24973;47.178;15.316;2022-08-03T03:44:37;15.40;99.90
21799;DHT22;24973;47.178;15.316;2022-08-03T03:47:27;15.40;99.90
21799;DHT22;24973;47.178;15.316;2022-08-03T03:50:17;15.50;99.90
21799;DHT22;24973;47.178;15.316;2022-08-03T03:53:08;15.60;99.90
21799;DHT22;24973;47.178;15.316;2022-08-03T03:55:58;15.70;99.90
21799;DHT22;24973;47.178;15.316;2022-08-03T03:58:47;15.70;99.90
21799;DHT22;24973;47.178;15.316;2022-08-03T04:01:37;15.60;99.90
21799;DHT22;24973;47.178;15.316;2022-08-03T04:04:27;15.50;99.90
21799;DHT22;24973;47.178;15.316;2022-08-03T04:07:41;15.50;99.90
21799;DHT22;24973;47.178;15.316;2022-08-03T04:10:59;15.40;99.90
21799;DHT22;24973;47.178;15.316;2022-08-03T04:13:55;15.40;99.90
21799;DHT22;24973;47.178;15.316;2022-08-03T04:16:49;15.40;99.90
21799;DHT22;24973;47.178;15.316;2022-08-03T04:19:43;15.40;99.90
21799;DHT22;24973;47.178;15.316;2022-08-03T04:22:36;15.40;99.90
21799;DHT22;24973;47.178;15.316;2022-08-03T04:25:29;15.40;99.90
21799;DHT22;24973;47.178;15.316;2022-08-03T04:28:19;15.40;99.90
21799;DHT22;24973;47.178;15.316;2022-08-03T04:31:09;15.40;99.90
21799;DHT22;24973;47.178;15.316;2022-08-03T04:33:58;15.40;99.90
21799;DHT22;24973;47.178;15.316;2022-08-03T04:36:51;15.50;99.90
21799;DHT22;24973;47.178;15.316;2022-08-03T04:39:48;15.50;99.90
21799;DHT22;24973;47.178;15.316;2022-08-03T04:42:39;15.50;99.90
21799;DHT22;24973;47.178;15.316;2022-08-03T04:45:30;15.50;99.90
21799;DHT22;24973;47.178;15.316;2022-08-03T04:48:20;15.50;99.90
21799;DHT22;24973;47.178;15.316;2022-08-03T04:51:09;15.50;99.90
21799;DHT22;24973;47.178;15.316;2022-08-03T04:54:00;15.60;99.90
21799;DHT22;24973;47.178;15.316;2022-08-03T04:56:50;15.60;99.90
21799;DHT22;24973;47.178;15.316;2022-08-03T04:59:38;15.60;99.90
21799;DHT22;24973;47.178;15.316;2022-08-03T05:02:27;15.70;99.90
21799;DHT22;24973;47.178;15.316;2022-08-03T05:05:17;15.80;99.90
21799;DHT22;24973;47.178;15.316;2022-08-03T05:08:05;15.80;99.90
21799;DHT22;24973;47.178;15.316;2022-08-03T05:10:56;15.80;99.90
21799;DHT22;24973;47.178;15.316;2022-08-03T05:13:45;15.80;99.90
21799;DHT22;24973;47.178;15.316;2022-08-03T05:16:34;15.70;99.90
21799;DHT22;24973;47.178;15.316;2022-08-03T05:19:23;15.80;99.90
21799;DHT22;24973;47.178;15.316;2022-08-03T05:22:12;15.90;99.90
21799;DHT22;24973;47.178;15.316;2022-08-03T05:25:01;15.90;99.90
21799;DHT22;24973;47.178;15.316;2022-08-03T05:27:52;16.00;99.90
21799;DHT22;24973;47.178;15.316;2022-08-03T05:30:41;16.10;99.90
21799;DHT22;24973;47.178;15.316;2022-08-03T05:33:30;16.20;99.90
21799;DHT22;24973;47.178;15.316;2022-08-03T05:36:19;16.20;99.90
21799;DHT22;24973;47.178;15.316;2022-08-03T05:39:07;16.30;99.90
21799;DHT22;24973;47.178;15.316;2022-08-03T05:41:56;16.40;99.90
21799;DHT22;24973;47.178;15.316;2022-08-03T05:44:46;16.50;99.90
21799;DHT22;24973;47.178;15.316;2022-08-03T05:47:35;16.60;99.90
21799;DHT22;24973;47.178;15.316;2022-08-03T05:50:24;16.70;99.90
21799;DHT22;24973;47.178;15.316;2022-08-03T05:53:13;16.90;99.90
21799;DHT22;24973;47.178;15.316;2022-08-03T05:56:02;16.90;99.90
21799;DHT22;24973;47.178;15.316;2022-08-03T05:58:55;17.00;99.90
21799;DHT22;24973;47.178;15.316;2022-08-03T06:01:45;17.10;99.90
21799;DHT22;24973;47.178;15.316;2022-08-03T06:04:34;17.30;99.90
21799;DHT22;24973;47.178;15.316;2022-08-03T06:07:24;17.50;99.90
21799;DHT22;24973;47.178;15.316;2022-08-03T06:10:13;17.60;99.90
21799;DHT22;24973;47.178;15.316;2022-08-03T06:13:02;17.90;99.90
21799;DHT22;24973;47.178;15.316;2022-08-03T06:15:51;18.10;99.90
21799;DHT22;24973;47.178;15.316;2022-08-03T06:18:41;18.40;99.90
21799;DHT22;24973;47.178;15.316;2022-08-03T06:21:30;18.60;99.90
21799;DHT22;24973;47.178;15.316;2022-08-03T06:24:19;18.80;99.90
21799;DHT22;24973;47.178;15.316;2022-08-03T06:27:08;19.10;99.90
21799;DHT22;24973;47.178;15.316;2022-08-03T06:29:58;19.20;99.90
21799;DHT22;24973;47.178;15.316;2022-08-03T06:32:47;19.40;99.90
21799;DHT22;24973;47.178;15.316;2022-08-03T06:35:39;19.60;99.90
21799;DHT22;24973;47.178;15.316;2022-08-03T06:38:28;19.80;99.90
21799;DHT22;24973;47.178;15.316;2022-08-03T06:41:17;19.90;99.90
21799;DHT22;24973;47.178;15.316;2022-08-03T06:44:05;20.10;99.90
21799;DHT22;24973;47.178;15.316;2022-08-03T06:46:54;20.20;99.90
21799;DHT22;24973;47.178;15.316;2022-08-03T06:49:44;20.40;99.90
21799;DHT22;24973;47.178;15.316;2022-08-03T06:52:35;20.60;99.90
21799;DHT22;24973;47.178;15.316;2022-08-03T06:55:24;20.80;99.90
21799;DHT22;24973;47.178;15.316;2022-08-03T06:58:13;21.00;99.90
21799;DHT22;24973;47.178;15.316;2022-08-03T07:01:02;21.30;99.90
21799;DHT22;24973;47.178;15.316;2022-08-03T07:03:51;21.40;99.90
21799;DHT22;24973;47.178;15.316;2022-08-03T07:06:40;21.60;99.90
21799;DHT22;24973;47.178;15.316;2022-08-03T07:09:31;21.70;99.90
21799;DHT22;24973;47.178;15.316;2022-08-03T07:12:19;22.00;99.90
21799;DHT22;24973;47.178;15.316;2022-08-03T07:15:09;22.10;99.90
21799;DHT22;24973;47.178;15.316;2022-08-03T07:17:58;22.20;99.90
21799;DHT22;24973;47.178;15.316;2022-08-03T07:20:47;22.40;99.90
21799;DHT22;24973;47.178;15.316;2022-08-03T07:23:36;22.60;99.90
21799;DHT22;24973;47.178;15.316;2022-08-03T07:26:26;22.70;99.90
21799;DHT22;24973;47.178;15.316;2022-08-03T07:29:15;22.90;99.90
21799;DHT22;24973;47.178;15.316;2022-08-03T07:32:04;23.00;99.90
21799;DHT22;24973;47.178;15.316;2022-08-03T07:34:53;23.20;99.90
21799;DHT22;24973;47.178;15.316;2022-08-03T07:37:46;23.40;99.90
21799;DHT22;24973;47.178;15.316;2022-08-03T07:40:35;23.60;99.90
21799;DHT22;24973;47.178;15.316;2022-08-03T07:43:25;23.70;99.90
21799;DHT22;24973;47.178;15.316;2022-08-03T07:46:14;23.90;99.90
21799;DHT22;24973;47.178;15.316;2022-08-03T07:49:02;24.10;99.90
21799;DHT22;24973;47.178;15.316;2022-08-03T07:51:51;24.20;99.90
21799;DHT22;24973;47.178;15.316;2022-08-03T07:54:54;24.30;99.90
21799;DHT22;24973;47.178;15.316;2022-08-03T07:57:43;24.40;99.90
21799;DHT22;24973;47.178;15.316;2022-08-03T08:00:34;24.50;99.90
21799;DHT22;24973;47.178;15.316;2022-08-03T08:03:24;24.60;99.90
21799;DHT22;24973;47.178;15.316;2022-08-03T08:06:15;24.60;99.90
21799;DHT22;24973;47.178;15.316;2022-08-03T08:09:04;24.80;99.90
21799;DHT22;24973;47.178;15.316;2022-08-03T08:11:53;25.00;99.90
21799;DHT22;24973;47.178;15.316;2022-08-03T08:14:42;25.10;99.90
21799;DHT22;24973;47.178;15.316;2022-08-03T08:17:42;25.10;99.90
21799;DHT22;24973;47.178;15.316;2022-08-03T08:20:33;25.40;99.90
21799;DHT22;24973;47.178;15.316;2022-08-03T08:23:23;25.50;99.90
21799;DHT22;24973;47.178;15.316;2022-08-03T08:26:13;25.70;99.90
21799;DHT22;24973;47.178;15.316;2022-08-03T08:29:02;25.80;99.90
21799;DHT22;24973;47.178;15.316;2022-08-03T08:31:51;26.00;99.90
21799;DHT22;24973;47.178;15.316;2022-08-03T08:34:43;26.20;99.90
21799;DHT22;24973;47.178;15.316;2022-08-03T08:37:32;26.30;99.90
21799;DHT22;24973;47.178;15.316;2022-08-03T08:40:22;26.40;99.90
21799;DHT22;24973;47.178;15.316;2022-08-03T08:43:11;26.50;99.90
21799;DHT22;24973;47.178;15.316;2022-08-03T08:46:00;26.70;99.90
21799;DHT22;24973;47.178;15.316;2022-08-03T08:48:50;26.90;99.90
21799;DHT22;24973;47.178;15.316;2022-08-03T08:51:42;27.00;99.90
21799;DHT22;24973;47.178;15.316;2022-08-03T08:54:33;27.10;99.90
21799;DHT22;24973;47.178;15.316;2022-08-03T08:57:27;27.20;99.90
21799;DHT22;24973;47.178;15.316;2022-08-03T09:00:28;27.20;99.90
21799;DHT22;24973;47.178;15.316;2022-08-03T09:03:18;27.40;99.90
21799;DHT22;24973;47.178;15.316;2022-08-03T09:06:07;27.50;99.90
21799;DHT22;24973;47.178;15.316;2022-08-03T09:08:57;27.60;99.50
21799;DHT22;24973;47.178;15.316;2022-08-03T09:11:47;27.60;99.50
21799;DHT22;24973;47.178;15.316;2022-08-03T09:14:36;27.60;98.90
21799;DHT22;24973;47.178;15.316;2022-08-03T09:18:04;27.70;98.30
21799;DHT22;24973;47.178;15.316;2022-08-03T09:21:14;27.80;97.60
21799;DHT22;24973;47.178;15.316;2022-08-03T09:24:22;28.00;97.50
21799;DHT22;24973;47.178;15.316;2022-08-03T09:27:23;27.80;96.90
21799;DHT22;24973;47.178;15.316;2022-08-03T09:30:13;28.20;96.00
21799;DHT22;24973;47.178;15.316;2022-08-03T09:33:04;28.30;96.00
21799;DHT22;24973;47.178;15.316;2022-08-03T09:35:54;28.40;95.30
21799;DHT22;24973;47.178;15.316;2022-08-03T09:39:00;28.60;95.00
21799;DHT22;24973;47.178;15.316;2022-08-03T09:42:05;28.80;93.50
21799;DHT22;24973;47.178;15.316;2022-08-03T09:44:55;28.90;91.70
21799;DHT22;24973;47.178;15.316;2022-08-03T09:47:45;29.00;92.20
21799;DHT22;24973;47.178;15.316;2022-08-03T09:50:47;29.10;92.40
21799;DHT22;24973;47.178;15.316;2022-08-03T09:53:42;28.80;87.20
21799;DHT22;24973;47.178;15.316;2022-08-03T09:56:42;28.80;90.40
21799;DHT22;24973;47.178;15.316;2022-08-03T09:59:33;28.90;90.80
21799;DHT22;24973;47.178;15.316;2022-08-03T10:02:23;29.20;89.40
21799;DHT22;24973;47.178;15.316;2022-08-03T10:05:12;29.30;90.20
21799;DHT22;24973;47.178;15.316;2022-08-03T10:08:14;29.50;87.80
21799;DHT22;24973;47.178;15.316;2022-08-03T10:11:03;29.70;86.80
21799;DHT22;24973;47.178;15.316;2022-08-03T10:13:52;29.80;86.40
21799;DHT22;24973;47.178;15.316;2022-08-03T10:16:42;30.00;87.80
21799;DHT22;24973;47.178;15.316;2022-08-03T10:19:31;30.20;86.40
21799;DHT22;24973;47.178;15.316;2022-08-03T10:22:21;30.40;83.10
21799;DHT22;24973;47.178;15.316;2022-08-03T10:25:11;30.40;81.90
21799;DHT22;24973;47.178;15.316;2022-08-03T10:28:02;30.40;83.70
21799;DHT22;24973;47.178;15.316;2022-08-03T10:30:52;30.40;82.80
21799;DHT22;24973;47.178;15.316;2022-08-03T10:33:48;30.50;79.50
21799;DHT22;24973;47.178;15.316;2022-08-03T10:36:39;30.10;78.10
21799;DHT22;24973;47.178;15.316;2022-08-03T10:39:29;29.80;79.50
21799;DHT22;24973;47.178;15.316;2022-08-03T10:42:20;29.40;78.10
21799;DHT22;24973;47.178;15.316;2022-08-03T10:45:17;29.60;81.20
21799;DHT22;24973;47.178;15.316;2022-08-03T10:48:07;29.80;78.30
21799;DHT22;24973;47.178;15.316;2022-08-03T10:50:58;30.10;80.70
21799;DHT22;24973;47.178;15.316;2022-08-03T10:53:47;30.50;81.10
21799;DHT22;24973;47.178;15.316;2022-08-03T10:56:40;31.00;83.20
21799;DHT22;24973;47.178;15.316;2022-08-03T10:59:58;31.40;79.70
21799;DHT22;24973;47.178;15.316;2022-08-03T11:03:06;31.60;74.50
21799;DHT22;24973;47.178;15.316;2022-08-03T11:06:14;31.80;75.60
21799;DHT22;24973;47.178;15.316;2022-08-03T11:09:14;31.80;70.70
21799;DHT22;24973;47.178;15.316;2022-08-03T11:12:20;31.30;70.40
21799;DHT22;24973;47.178;15.316;2022-08-03T11:15:10;31.30;73.10
21799;DHT22;24973;47.178;15.316;2022-08-03T11:18:08;31.50;72.40
21799;DHT22;24973;47.178;15.316;2022-08-03T11:20:59;31.70;72.40
21799;DHT22;24973;47.178;15.316;2022-08-03T11:23:49;31.80;67.30
21799;DHT22;24973;47.178;15.316;2022-08-03T11:26:38;32.00;70.20
21799;DHT22;24973;47.178;15.316;2022-08-03T11:29:28;32.10;72.60
21799;DHT22;24973;47.178;15.316;2022-08-03T11:35:58;32.30;68.10
21799;DHT22;24973;47.178;15.316;2022-08-03T11:39:13;32.50;68.00
21799;DHT22;24973;47.178;15.316;2022-08-03T11:45:35;32.60;68.00
21799;DHT22;24973;47.178;15.316;2022-08-03T11:48:26;32.80;66.70
21799;DHT22;24973;47.178;15.316;2022-08-03T11:51:23;33.10;65.90
21799;DHT22;24973;47.178;15.316;2022-08-03T11:54:18;33.20;64.90
21799;DHT22;24973;47.178;15.316;2022-08-03T11:57:09;32.80;59.80
21799;DHT22;24973;47.178;15.316;2022-08-03T11:59:58;33.10;63.40
21799;DHT22;24973;47.178;15.316;2022-08-03T12:02:55;33.30;61.80
21799;DHT22;24973;47.178;15.316;2022-08-03T12:05:47;33.30;61.90
21799;DHT22;24973;47.178;15.316;2022-08-03T12:08:36;33.00;60.10
21799;DHT22;24973;47.178;15.316;2022-08-03T12:11:26;32.00;60.90
21799;DHT22;24973;47.178;15.316;2022-08-03T12:14:16;31.90;61.80
21799;DHT22;24973;47.178;15.316;2022-08-03T12:17:06;32.30;62.70
21799;DHT22;24973;47.178;15.316;2022-08-03T12:19:57;32.90;64.00
21799;DHT22;24973;47.178;15.316;2022-08-03T12:22:46;33.50;62.90
21799;DHT22;24973;47.178;15.316;2022-08-03T12:25:35;34.20;61.50
21799;DHT22;24973;47.178;15.316;2022-08-03T12:28:27;34.10;57.90
21799;DHT22;24973;47.178;15.316;2022-08-03T12:31:16;33.00;59.00
21799;DHT22;24973;47.178;15.316;2022-08-03T12:34:07;31.70;59.00
21799;DHT22;24973;47.178;15.316;2022-08-03T12:36:56;30.60;61.20
21799;DHT22;24973;47.178;15.316;2022-08-03T12:39:49;30.20;62.70
21799;DHT22;24973;47.178;15.316;2022-08-03T12:42:38;29.90;64.80
21799;DHT22;24973;47.178;15.316;2022-08-03T12:45:28;29.80;66.00
21799;DHT22;24973;47.178;15.316;2022-08-03T12:48:18;30.30;66.40
21799;DHT22;24973;47.178;15.316;2022-08-03T12:51:07;30.90;65.10
21799;DHT22;24973;47.178;15.316;2022-08-03T12:53:57;31.50;63.50
21799;DHT22;24973;47.178;15.316;2022-08-03T12:56:56;32.10;65.20
21799;DHT22;24973;47.178;15.316;2022-08-03T12:59:45;32.90;63.20
21799;DHT22;24973;47.178;15.316;2022-08-03T13:02:36;33.50;62.20
21799;DHT22;24973;47.178;15.316;2022-08-03T13:05:24;34.00;60.40
21799;DHT22;24973;47.178;15.316;2022-08-03T13:08:17;34.60;61.30
21799;DHT22;24973;47.178;15.316;2022-08-03T13:11:20;34.90;60.60
21799;DHT22;24973;47.178;15.316;2022-08-03T13:14:10;35.00;56.50
21799;DHT22;24973;47.178;15.316;2022-08-03T13:16:59;34.50;57.00
21799;DHT22;24973;47.178;15.316;2022-08-03T13:19:49;34.40;57.30
21799;DHT22;24973;47.178;15.316;2022-08-03T13:22:38;34.50;58.50
21799;DHT22;24973;47.178;15.316;2022-08-03T13:25:28;35.00;58.60
21799;DHT22;24973;47.178;15.316;2022-08-03T13:28:17;35.60;58.80
21799;DHT22;24973;47.178;15.316;2022-08-03T13:31:06;36.10;57.80
21799;DHT22;24973;47.178;15.316;2022-08-03T13:33:55;36.60;57.00
21799;DHT22;24973;47.178;15.316;2022-08-03T13:36:45;37.00;55.30
21799;DHT22;24973;47.178;15.316;2022-08-03T13:39:52;37.30;55.30
21799;DHT22;24973;47.178;15.316;2022-08-03T13:42:41;37.60;55.40
21799;DHT22;24973;47.178;15.316;2022-08-03T13:45:30;37.80;53.30
21799;DHT22;24973;47.178;15.316;2022-08-03T13:48:19;37.60;53.70
21799;DHT22;24973;47.178;15.316;2022-08-03T13:51:07;37.70;53.50
21799;DHT22;24973;47.178;15.316;2022-08-03T13:53:58;37.80;52.90
21799;DHT22;24973;47.178;15.316;2022-08-03T13:56:47;37.80;51.60
21799;DHT22;24973;47.178;15.316;2022-08-03T13:59:38;37.60;52.10
21799;DHT22;24973;47.178;15.316;2022-08-03T14:02:27;37.60;53.00
21799;DHT22;24973;47.178;15.316;2022-08-03T14:05:16;37.60;52.20
21799;DHT22;24973;47.178;15.316;2022-08-03T14:08:05;37.40;51.10
21799;DHT22;24973;47.178;15.316;2022-08-03T14:10:57;37.30;50.50
21799;DHT22;24973;47.178;15.316;2022-08-03T14:13:46;37.10;50.50
21799;DHT22;24973;47.178;15.316;2022-08-03T14:16:35;37.00;50.80
21799;DHT22;24973;47.178;15.316;2022-08-03T14:19:24;37.20;50.80
21799;DHT22;24973;47.178;15.316;2022-08-03T14:22:13;37.40;48.80
21799;DHT22;24973;47.178;15.316;2022-08-03T14:25:02;37.10;49.50
21799;DHT22;24973;47.178;15.316;2022-08-03T14:27:52;36.90;50.30
21799;DHT22;24973;47.178;15.316;2022-08-03T14:30:41;36.90;51.70
21799;DHT22;24973;47.178;15.316;2022-08-03T14:33:30;37.10;51.80
21799;DHT22;24973;47.178;15.316;2022-08-03T14:36:19;37.30;51.30
21799;DHT22;24973;47.178;15.316;2022-08-03T14:39:08;37.40;50.50
21799;DHT22;24973;47.178;15.316;2022-08-03T14:41:56;37.50;50.70
21799;DHT22;24973;47.178;15.316;2022-08-03T14:44:48;37.50;50.20
21799;DHT22;24973;47.178;15.316;2022-08-03T14:47:37;37.60;50.30
21799;DHT22;24973;47.178;15.316;2022-08-03T14:50:26;37.10;49.30
21799;DHT22;24973;47.178;15.316;2022-08-03T14:53:25;37.10;51.40
21799;DHT22;24973;47.178;15.316;2022-08-03T14:56:14;36.80;49.80
21799;DHT22;24973;47.178;15.316;2022-08-03T14:59:03;35.70;50.60
21799;DHT22;24973;47.178;15.316;2022-08-03T15:01:53;35.20;52.10
21799;DHT22;24973;47.178;15.316;2022-08-03T15:04:42;36.00;52.00
21799;DHT22;24973;47.178;15.316;2022-08-03T15:07:31;36.60;51.60
21799;DHT22;24973;47.178;15.316;2022-08-03T15:10:20;36.40;50.10
21799;DHT22;24973;47.178;15.316;2022-08-03T15:13:09;36.00;50.50
21799;DHT22;24973;47.178;15.316;2022-08-03T15:15:58;36.20;51.30
21799;DHT22;24973;47.178;15.316;2022-08-03T15:18:48;36.60;50.80
21799;DHT22;24973;47.178;15.316;2022-08-03T15:21:36;35.40;50.10
21799;DHT22;24973;47.178;15.316;2022-08-03T15:24:25;34.30;50.90
21799;DHT22;24973;47.178;15.316;2022-08-03T15:27:14;34.40;52.70
21799;DHT22;24973;47.178;15.316;2022-08-03T15:30:04;34.50;51.10
21799;DHT22;24973;47.178;15.316;2022-08-03T15:32:54;34.90;52.00
21799;DHT22;24973;47.178;15.316;2022-08-03T15:35:44;35.20;52.30
21799;DHT22;24973;47.178;15.316;2022-08-03T15:38:33;35.20;52.20
21799;DHT22;24973;47.178;15.316;2022-08-03T15:41:22;35.10;52.30
21799;DHT22;24973;47.178;15.316;2022-08-03T15:44:11;35.50;52.30
21799;DHT22;24973;47.178;15.316;2022-08-03T15:47:00;36.10;52.10
21799;DHT22;24973;47.178;15.316;2022-08-03T15:49:49;36.90;51.30
21799;DHT22;24973;47.178;15.316;2022-08-03T15:52:39;37.50;50.30
21799;DHT22;24973;47.178;15.316;2022-08-03T15:55:28;37.30;49.30
21799;DHT22;24973;47.178;15.316;2022-08-03T15:58:17;36.90;49.10
21799;DHT22;24973;47.178;15.316;2022-08-03T16:01:06;36.50;48.90
21799;DHT22;24973;47.178;15.316;2022-08-03T16:03:55;35.60;49.50
21799;DHT22;24973;47.178;15.316;2022-08-03T16:06:44;34.80;50.10
21799;DHT22;24973;47.178;15.316;2022-08-03T16:09:34;33.90;51.10
21799;DHT22;24973;47.178;15.316;2022-08-03T16:12:23;34.20;52.50
21799;DHT22;24973;47.178;15.316;2022-08-03T16:15:13;35.00;54.10
21799;DHT22;24973;47.178;15.316;2022-08-03T16:18:02;35.90;53.10
21799;DHT22;24973;47.178;15.316;2022-08-03T16:20:51;36.50;51.20
21799;DHT22;24973;47.178;15.316;2022-08-03T16:23:40;37.10;51.70
21799;DHT22;24973;47.178;15.316;2022-08-03T16:26:30;37.40;49.80
21799;DHT22;24973;47.178;15.316;2022-08-03T16:29:19;37.10;50.20
21799;DHT22;24973;47.178;15.316;2022-08-03T16:32:07;36.40;50.80
21799;DHT22;24973;47.178;15.316;2022-08-03T16:34:56;35.50;51.80
21799;DHT22;24973;47.178;15.316;2022-08-03T16:37:46;34.60;52.60
21799;DHT22;24973;47.178;15.316;2022-08-03T16:40:35;33.80;53.90
21799;DHT22;24973;47.178;15.316;2022-08-03T16:43:25;33.10;55.50
21799;DHT22;24973;47.178;15.316;2022-08-03T16:46:14;32.50;56.50
21799;DHT22;24973;47.178;15.316;2022-08-03T16:49:03;32.00;57.60
21799;DHT22;24973;47.178;15.316;2022-08-03T16:51:54;31.50;58.80
21799;DHT22;24973;47.178;15.316;2022-08-03T16:54:43;31.00;60.00
21799;DHT22;24973;47.178;15.316;2022-08-03T16:57:33;30.60;61.20
21799;DHT22;24973;47.178;15.316;2022-08-03T17:00:23;30.20;61.60
21799;DHT22;24973;47.178;15.316;2022-08-03T17:03:14;29.90;61.60
21799;DHT22;24973;47.178;15.316;2022-08-03T17:06:07;29.60;61.00
21799;DHT22;24973;47.178;15.316;2022-08-03T17:08:57;29.40;62.40
21799;DHT22;24973;47.178;15.316;2022-08-03T17:11:48;29.10;64.50
21799;DHT22;24973;47.178;15.316;2022-08-03T17:14:39;28.90;65.70
21799;DHT22;24973;47.178;15.316;2022-08-03T17:17:32;28.60;66.60
21799;DHT22;24973;47.178;15.316;2022-08-03T17:20:23;28.50;65.90
21799;DHT22;24973;47.178;15.316;2022-08-03T17:23:28;28.30;67.60
21799;DHT22;24973;47.178;15.316;2022-08-03T17:26:22;28.10;69.00
21799;DHT22;24973;47.178;15.316;2022-08-03T17:29:13;27.90;69.80
21799;DHT22;24973;47.178;15.316;2022-08-03T17:32:05;27.70;69.20
21799;DHT22;24973;47.178;15.316;2022-08-03T17:34:57;27.50;69.10
21799;DHT22;24973;47.178;15.316;2022-08-03T17:37:46;27.20;72.50
21799;DHT22;24973;47.178;15.316;2022-08-03T17:40:35;26.90;73.20
21799;DHT22;24973;47.178;15.316;2022-08-03T17:43:25;26.80;74.40
21799;DHT22;24973;47.178;15.316;2022-08-03T17:46:15;26.50;76.00
21799;DHT22;24973;47.178;15.316;2022-08-03T17:49:05;26.20;77.90
21799;DHT22;24973;47.178;15.316;2022-08-03T17:51:59;26.00;79.20